createdAt,value
2018-07-19T00:01:29.946Z,50.40
2018-07-19T00:03:58.579Z,50.60
2018-07-19T00:06:27.590Z,50.70
2018-07-19T00:08:56.592Z,50.70
2018-07-19T00:11:26.317Z,51.00
2018-07-19T00:13:54.881Z,51.20
2018-07-19T00:16:25.165Z,50.70
2018-07-19T00:18:53.667Z,51.20
2018-07-19T00:21:22.080Z,51.30
2018-07-19T00:23:50.463Z,51.50
2018-07-19T00:26:19.363Z,52.30
2018-07-19T00:28:48.224Z,51.90
2018-07-19T00:31:17.175Z,52.10
2018-07-19T00:33:45.603Z,52.10
2018-07-19T00:36:13.954Z,52.10
2018-07-19T00:38:42.516Z,52.00
2018-07-19T00:41:10.927Z,52.00
2018-07-19T00:43:39.813Z,52.20
2018-07-19T00:46:08.228Z,52.30
2018-07-19T00:48:36.614Z,52.40
2018-07-19T00:51:04.997Z,52.60
2018-07-19T00:53:33.404Z,52.60
2018-07-19T00:56:02.515Z,52.70
2018-07-19T00:58:31.097Z,52.80
2018-07-19T01:00:59.846Z,52.50
2018-07-19T01:03:28.463Z,52.60
2018-07-19T01:05:56.945Z,52.60
2018-07-19T01:08:25.313Z,52.60
2018-07-19T01:10:54.948Z,52.60
2018-07-19T01:13:23.397Z,52.50
2018-07-19T01:15:52.508Z,52.30
2018-07-19T01:18:21.075Z,52.00
2018-07-19T01:20:49.478Z,51.80
2018-07-19T01:23:17.815Z,52.00
2018-07-19T01:25:47.556Z,52.00
2018-07-19T01:28:15.897Z,52.10
2018-07-19T01:30:44.637Z,52.00
2018-07-19T01:33:13.662Z,51.50
2018-07-19T01:35:42.344Z,52.00
2018-07-19T01:40:38.915Z,52.50
2018-07-19T01:43:07.801Z,52.30
2018-07-19T01:45:36.152Z,53.00
2018-07-19T01:50:32.903Z,53.50
2018-07-19T01:53:01.844Z,53.30
2018-07-19T01:55:30.864Z,53.40
2018-07-19T01:58:00.113Z,53.70
2018-07-19T02:00:29.268Z,53.70
2018-07-19T02:02:58.990Z,53.70
2018-07-19T02:05:27.540Z,53.40
2018-07-19T02:08:00.882Z,53.20
2018-07-19T02:10:29.724Z,53.60
2018-07-19T02:12:58.163Z,53.50
2018-07-19T02:15:26.527Z,53.50
2018-07-19T02:17:55.883Z,53.60
2018-07-19T02:20:24.596Z,53.60
2018-07-19T02:22:53.881Z,53.60
2018-07-19T02:25:22.751Z,53.80
2018-07-19T02:27:51.436Z,54.20
2018-07-19T02:30:20.290Z,54.50
2018-07-19T02:37:45.124Z,55.50
2018-07-19T02:40:13.532Z,55.60
2018-07-19T02:42:42.524Z,55.60
2018-07-19T02:45:10.904Z,55.50
2018-07-19T02:47:39.485Z,55.50
2018-07-19T02:50:07.871Z,55.60
2018-07-19T02:52:36.344Z,55.60
2018-07-19T02:55:05.144Z,55.70
2018-07-19T02:57:33.923Z,55.80
2018-07-19T03:00:03.634Z,55.70
2018-07-19T03:02:32.028Z,55.80
2018-07-19T03:05:00.846Z,56.00
2018-07-19T03:07:29.296Z,56.10
2018-07-19T03:09:58.110Z,56.20
2018-07-19T03:12:26.424Z,56.70
2018-07-19T03:14:54.966Z,56.30
2018-07-19T03:17:23.359Z,56.40
2018-07-19T03:19:52.247Z,56.70
2018-07-19T03:22:20.568Z,56.70
2018-07-19T03:24:48.949Z,56.80
2018-07-19T03:27:17.666Z,56.80
2018-07-19T03:29:46.488Z,56.90
2018-07-19T03:32:14.851Z,57.00
2018-07-19T03:34:43.324Z,57.40
2018-07-19T03:37:11.655Z,57.60
2018-07-19T03:39:40.052Z,57.80
2018-07-19T03:42:09.097Z,57.60
2018-07-19T03:44:37.547Z,57.60
2018-07-19T03:47:06.584Z,57.50
2018-07-19T03:49:35.079Z,57.50
2018-07-19T03:52:03.567Z,57.90
2018-07-19T03:54:31.975Z,58.00
2018-07-19T03:57:00.853Z,58.10
2018-07-19T03:59:29.261Z,58.20
2018-07-19T04:01:58.506Z,58.20
2018-07-19T04:04:31.799Z,58.40
2018-07-19T04:07:00.337Z,58.20
2018-07-19T04:09:31.359Z,58.10
2018-07-19T04:11:59.804Z,58.80
2018-07-19T04:14:28.243Z,58.40
2018-07-19T04:16:56.715Z,58.30
2018-07-19T04:19:25.656Z,58.40
2018-07-19T04:21:54.075Z,58.10
2018-07-19T04:24:22.541Z,58.10
2018-07-19T04:26:51.658Z,58.20
2018-07-19T04:29:22.015Z,58.00
2018-07-19T04:31:50.363Z,58.00
2018-07-19T04:34:18.819Z,57.90
2018-07-19T04:36:47.729Z,58.10
2018-07-19T04:39:16.276Z,58.00
2018-07-19T04:41:44.862Z,58.00
2018-07-19T04:44:13.800Z,57.60
2018-07-19T04:46:42.196Z,57.60
2018-07-19T04:49:10.633Z,57.50
2018-07-19T04:51:39.145Z,57.40
2018-07-19T04:56:36.295Z,57.40
2018-07-19T04:59:05.285Z,57.70
2018-07-19T05:01:34.103Z,58.20
2018-07-19T05:04:02.517Z,58.10
2018-07-19T05:06:31.133Z,58.00
2018-07-19T05:09:00.131Z,58.00
2018-07-19T05:11:28.482Z,57.90
2018-07-19T05:13:56.857Z,58.20
2018-07-19T05:16:25.274Z,58.30
2018-07-19T05:18:54.229Z,58.10
2018-07-19T05:21:22.695Z,58.10
2018-07-19T05:23:51.040Z,58.30
2018-07-19T05:26:20.409Z,58.40
2018-07-19T05:28:49.203Z,58.10
2018-07-19T05:31:18.664Z,57.90
2018-07-19T05:33:47.155Z,57.30
2018-07-19T05:36:18.442Z,56.80
2018-07-19T05:38:47.560Z,56.60
2018-07-19T05:41:17.922Z,56.50
2018-07-19T05:43:46.703Z,56.30
2018-07-19T05:46:15.792Z,56.10
2018-07-19T05:48:44.927Z,56.20
2018-07-19T05:51:13.626Z,56.30
2018-07-19T05:53:41.956Z,56.20
2018-07-19T05:56:10.339Z,56.30
2018-07-19T05:58:38.740Z,56.10
2018-07-19T06:01:07.600Z,55.90
2018-07-19T06:03:35.977Z,55.80
2018-07-19T06:06:04.926Z,55.90
2018-07-19T06:08:33.362Z,56.00
2018-07-19T06:11:02.095Z,55.90
2018-07-19T06:13:30.619Z,56.20
2018-07-19T06:15:59.051Z,55.90
2018-07-19T06:18:27.594Z,55.60
2018-07-19T06:20:55.978Z,55.80
2018-07-19T06:23:24.652Z,55.60
2018-07-19T06:25:53.170Z,55.50
2018-07-19T06:28:22.238Z,55.10
2018-07-19T06:30:50.955Z,54.90
2018-07-19T06:33:19.603Z,54.70
2018-07-19T06:35:48.764Z,54.80
2018-07-19T06:38:17.180Z,55.10
2018-07-19T06:40:45.584Z,55.30
2018-07-19T06:43:14.590Z,55.50
2018-07-19T06:45:43.241Z,55.20
2018-07-19T06:48:11.783Z,54.60
2018-07-19T06:50:40.147Z,53.50
2018-07-19T06:53:09.673Z,53.60
2018-07-19T06:55:38.563Z,53.40
2018-07-19T06:58:07.165Z,52.90
2018-07-19T07:00:36.756Z,52.70
2018-07-19T07:03:05.578Z,52.60
2018-07-19T07:05:34.309Z,52.80
2018-07-19T07:08:04.345Z,52.30
2018-07-19T07:10:33.349Z,51.90
2018-07-19T07:13:02.926Z,51.50
2018-07-19T07:15:31.496Z,51.00
2018-07-19T07:18:00.921Z,50.40
2018-07-19T07:20:29.772Z,49.70
2018-07-19T07:23:00.405Z,49.50
2018-07-19T07:25:34.126Z,48.80
2018-07-19T07:28:02.815Z,48.20
2018-07-19T07:30:31.836Z,46.00
2018-07-19T07:33:00.199Z,45.20
2018-07-19T07:35:29.017Z,47.00
2018-07-19T07:37:57.544Z,47.10
2018-07-19T07:40:25.892Z,44.40
2018-07-19T07:42:54.849Z,44.20
2018-07-19T07:45:23.550Z,44.30
2018-07-19T07:47:52.080Z,43.00
2018-07-19T07:51:50.052Z,43.10
2018-07-19T07:54:18.563Z,43.00
2018-07-19T07:56:48.661Z,42.90
2018-07-19T07:59:17.265Z,43.60
2018-07-19T08:01:47.806Z,43.60
2018-07-19T08:04:16.171Z,40.90
2018-07-19T08:06:44.512Z,42.10
2018-07-19T08:09:13.920Z,42.30
2018-07-19T08:14:10.788Z,42.70
2018-07-19T08:16:39.371Z,43.20
2018-07-19T08:19:08.110Z,42.30
2018-07-19T08:21:36.695Z,42.80
2018-07-19T08:24:05.393Z,42.00
2018-07-19T08:26:34.043Z,42.70
2018-07-19T08:29:04.173Z,42.80
2018-07-19T08:31:33.218Z,42.90
2018-07-19T08:34:03.010Z,42.90
2018-07-19T08:36:31.461Z,42.90
2018-07-19T08:39:01.997Z,41.50
2018-07-19T08:41:30.562Z,41.10
2018-07-19T08:44:01.149Z,41.30
2018-07-19T08:46:29.676Z,41.10
2018-07-19T08:48:58.324Z,41.60
2018-07-19T08:51:26.801Z,41.00
2018-07-19T08:53:55.396Z,40.60
2018-07-19T08:56:24.199Z,40.50
2018-07-19T08:58:53.097Z,39.80
2018-07-19T09:01:22.208Z,38.80
2018-07-19T09:03:50.678Z,39.30
2018-07-19T09:06:19.031Z,39.60
2018-07-19T09:08:48.091Z,39.50
2018-07-19T09:11:17.548Z,38.00
2018-07-19T09:13:46.215Z,37.90
2018-07-19T09:16:14.612Z,39.30
2018-07-19T09:18:43.060Z,37.50
2018-07-19T09:21:12.054Z,38.10
2018-07-19T09:23:40.408Z,37.60
2018-07-19T09:26:08.753Z,39.20
2018-07-19T09:28:37.586Z,41.00
2018-07-19T09:31:06.627Z,39.90
2018-07-19T09:33:35.007Z,39.60
2018-07-19T09:36:03.388Z,39.90
2018-07-19T09:38:31.986Z,38.00
2018-07-19T09:41:00.437Z,38.60
2018-07-19T09:43:29.460Z,36.90
2018-07-19T09:45:57.904Z,37.80
2018-07-19T09:48:26.187Z,36.40
2018-07-19T09:50:54.674Z,37.90
2018-07-19T09:53:22.983Z,39.90
2018-07-19T09:55:51.346Z,40.90
2018-07-19T09:58:19.662Z,41.60
2018-07-19T10:00:56.246Z,40.90
2018-07-19T10:03:24.768Z,41.60
2018-07-19T10:05:54.043Z,41.00
2018-07-19T10:08:22.471Z,41.00
2018-07-19T10:10:52.010Z,38.40
2018-07-19T10:13:20.376Z,39.30
2018-07-19T10:15:49.494Z,39.60
2018-07-19T10:18:18.117Z,37.10
2018-07-19T10:20:46.460Z,38.00
2018-07-19T10:23:14.839Z,38.00
2018-07-19T10:25:43.308Z,38.00
2018-07-19T10:28:12.161Z,38.00
2018-07-19T10:30:41.457Z,37.20
2018-07-19T10:33:10.387Z,37.30
2018-07-19T10:35:38.890Z,37.30
2018-07-19T10:38:07.341Z,35.20
2018-07-19T10:40:36.452Z,34.50
2018-07-19T10:43:05.328Z,36.20
2018-07-19T10:45:33.631Z,33.90
2018-07-19T10:48:02.127Z,34.60
2018-07-19T10:50:30.666Z,33.80
2018-07-19T10:52:59.300Z,33.60
2018-07-19T10:55:27.700Z,33.30
2018-07-19T10:57:56.235Z,35.10
2018-07-19T11:00:25.200Z,33.20
2018-07-19T11:02:54.065Z,32.30
2018-07-19T11:05:22.573Z,31.60
2018-07-19T11:07:51.378Z,31.70
2018-07-19T11:10:20.213Z,31.50
2018-07-19T11:12:48.573Z,31.20
2018-07-19T11:15:16.926Z,31.80
2018-07-19T11:17:45.419Z,31.60
2018-07-19T11:20:13.755Z,31.20
2018-07-19T11:22:42.288Z,31.10
2018-07-19T11:25:10.730Z,30.70
2018-07-19T11:27:39.503Z,32.20
2018-07-19T11:30:08.252Z,31.30
2018-07-19T11:32:36.586Z,32.30
2018-07-19T11:35:04.943Z,32.10
2018-07-19T11:37:33.526Z,30.90
2018-07-19T11:40:01.923Z,30.00
2018-07-19T11:42:30.808Z,29.50
2018-07-19T11:44:59.097Z,30.60
2018-07-19T11:47:27.608Z,30.00
2018-07-19T11:49:55.941Z,29.90
2018-07-19T11:52:24.364Z,30.30
2018-07-19T11:54:52.852Z,32.20
2018-07-19T11:57:21.589Z,32.90
2018-07-19T11:59:49.891Z,32.10
2018-07-19T12:02:18.642Z,32.50
2018-07-19T12:04:46.971Z,32.50
2018-07-19T12:07:15.439Z,33.50
2018-07-19T12:09:45.178Z,31.30
2018-07-19T12:12:13.632Z,32.90
2018-07-19T12:14:42.143Z,31.50
2018-07-19T12:17:10.597Z,31.60
2018-07-19T12:19:38.927Z,30.40
2018-07-19T12:22:07.266Z,28.90
2018-07-19T12:24:35.639Z,28.60
2018-07-19T12:27:04.175Z,28.50
2018-07-19T12:29:33.065Z,28.70
2018-07-19T12:32:01.450Z,29.70
2018-07-19T12:34:29.925Z,29.90
2018-07-19T12:36:58.358Z,29.80
2018-07-19T12:39:26.708Z,31.20
2018-07-19T12:41:55.077Z,32.30
2018-07-19T12:44:23.928Z,31.50
2018-07-19T12:46:52.368Z,32.20
2018-07-19T12:49:21.652Z,32.90
2018-07-19T12:51:50.738Z,33.00
2018-07-19T12:54:19.107Z,30.20
2018-07-19T12:56:47.894Z,31.90
2018-07-19T12:59:16.242Z,31.60
2018-07-19T13:01:48.483Z,32.90
2018-07-19T13:04:17.024Z,31.50
2018-07-19T13:06:46.986Z,30.40
2018-07-19T13:09:15.931Z,31.60
2018-07-19T13:11:45.789Z,32.30
2018-07-19T13:14:15.178Z,29.50
2018-07-19T13:16:43.811Z,29.50
2018-07-19T13:19:12.172Z,29.60
2018-07-19T13:21:40.532Z,29.70
2018-07-19T13:24:09.048Z,30.30
2018-07-19T13:26:38.185Z,30.90
2018-07-19T13:29:07.399Z,29.40
2018-07-19T13:31:36.206Z,29.80
2018-07-19T13:34:04.628Z,29.50
2018-07-19T13:36:33.489Z,28.10
2018-07-19T13:39:01.828Z,27.80
2018-07-19T13:41:30.348Z,27.60
2018-07-19T13:43:59.220Z,27.40
2018-07-19T13:46:27.852Z,28.50
2018-07-19T13:48:56.168Z,28.60
2018-07-19T13:51:24.682Z,28.30
2018-07-19T13:56:43.431Z,28.70
2018-07-19T13:59:11.955Z,28.40
2018-07-19T14:01:42.295Z,28.20
2018-07-19T14:04:11.638Z,26.50
2018-07-19T14:06:40.588Z,26.30
2018-07-19T14:09:13.237Z,27.10
2018-07-19T14:11:41.552Z,27.10
2018-07-19T14:14:10.340Z,26.70
2018-07-19T14:16:38.750Z,26.70
2018-07-19T14:19:07.507Z,26.70
2018-07-19T14:21:35.965Z,25.60
2018-07-19T14:24:04.445Z,26.50
2018-07-19T14:26:33.102Z,26.60
2018-07-19T14:29:01.791Z,25.30
2018-07-19T14:31:31.341Z,26.20
2018-07-19T14:34:00.034Z,25.60
2018-07-19T14:36:30.108Z,25.80
2018-07-19T14:39:00.900Z,25.60
2018-07-19T14:41:30.502Z,25.60
2018-07-19T14:44:01.143Z,26.70
2018-07-19T14:46:29.483Z,26.10
2018-07-19T14:48:57.996Z,26.70
2018-07-19T14:51:27.196Z,26.50
2018-07-19T14:53:55.600Z,26.30
2018-07-19T14:58:52.199Z,26.40
2018-07-19T15:01:22.160Z,27.30
2018-07-19T15:03:52.672Z,27.30
2018-07-19T15:06:21.165Z,26.30
2018-07-19T15:08:51.479Z,26.00
2018-07-19T15:11:21.925Z,26.20
2018-07-19T15:13:50.448Z,26.30
2018-07-19T15:16:19.899Z,26.60
2018-07-19T15:18:48.564Z,26.50
2018-07-19T15:21:19.696Z,27.00
2018-07-19T15:23:48.030Z,27.10
2018-07-19T15:26:19.115Z,27.00
2018-07-19T15:28:47.883Z,26.80
2018-07-19T15:31:16.839Z,26.90
2018-07-19T15:33:45.162Z,27.00
2018-07-19T15:36:13.543Z,26.30
2018-07-19T15:38:41.892Z,26.60
2018-07-19T15:41:11.879Z,26.10
2018-07-19T15:43:40.734Z,26.20
2018-07-19T15:46:09.208Z,26.80
2018-07-19T15:48:37.566Z,26.70
2018-07-19T15:51:06.694Z,26.30
2018-07-19T15:53:35.031Z,26.90
2018-07-19T15:56:03.410Z,26.60
2018-07-19T15:58:32.559Z,26.50
2018-07-19T16:01:01.512Z,27.00
2018-07-19T16:03:31.363Z,26.80
2018-07-19T16:05:59.713Z,27.20
2018-07-19T16:08:28.235Z,27.00
2018-07-19T16:10:57.118Z,26.70
2018-07-19T16:13:26.087Z,27.30
2018-07-19T16:15:54.462Z,27.00
2018-07-19T16:18:22.790Z,27.00
2018-07-19T16:20:51.303Z,26.40
2018-07-19T16:23:19.704Z,26.80
2018-07-19T16:25:48.567Z,27.90
2018-07-19T16:28:16.870Z,27.60
2018-07-19T16:30:45.867Z,28.10
2018-07-19T16:33:14.280Z,27.30
2018-07-19T16:35:42.700Z,27.10
2018-07-19T16:38:11.344Z,28.00
2018-07-19T16:40:39.853Z,28.00
2018-07-19T16:43:09.420Z,27.30
2018-07-19T16:45:38.033Z,27.60
2018-07-19T16:48:06.687Z,28.60
2018-07-19T16:50:35.736Z,28.30
2018-07-19T16:53:07.746Z,28.50
2018-07-19T16:55:36.202Z,28.60
2018-07-19T17:00:34.561Z,28.20
2018-07-19T17:03:03.947Z,29.10
2018-07-19T17:05:32.616Z,28.90
2018-07-19T17:10:29.590Z,30.30
2018-07-19T17:12:58.259Z,30.20
2018-07-19T17:15:26.832Z,30.40
2018-07-19T17:17:55.383Z,31.20
2018-07-19T17:20:24.148Z,30.50
2018-07-19T17:22:53.215Z,30.80
2018-07-19T17:25:21.682Z,30.40
2018-07-19T17:27:50.500Z,30.80
2018-07-19T17:30:19.639Z,30.50
2018-07-19T17:32:48.052Z,30.90
2018-07-19T17:35:16.413Z,31.00
2018-07-19T17:37:45.036Z,31.80
2018-07-19T17:40:13.569Z,31.80
2018-07-19T17:42:42.476Z,31.60
2018-07-19T17:45:10.820Z,31.70
2018-07-19T17:47:39.496Z,31.20
2018-07-19T17:50:08.302Z,31.20
2018-07-19T17:52:36.762Z,32.30
2018-07-19T17:55:05.169Z,32.40
2018-07-19T17:57:34.182Z,32.90
2018-07-19T18:00:03.871Z,33.10
2018-07-19T18:02:32.256Z,33.80
2018-07-19T18:05:01.273Z,34.00
2018-07-19T18:07:29.800Z,34.20
2018-07-19T18:09:58.924Z,34.50
2018-07-19T18:12:27.390Z,34.90
2018-07-19T18:14:55.784Z,34.70
2018-07-19T18:17:24.243Z,34.90
2018-07-19T18:19:52.736Z,35.30
2018-07-19T18:22:21.204Z,35.50
2018-07-19T18:24:50.232Z,36.00
2018-07-19T18:27:18.813Z,36.40
2018-07-19T18:29:48.245Z,36.50
2018-07-19T18:32:16.848Z,37.00
2018-07-19T18:34:45.472Z,36.60
2018-07-19T18:37:14.013Z,36.90
2018-07-19T18:39:42.657Z,37.10
2018-07-19T18:42:11.840Z,37.50
2018-07-19T18:44:42.617Z,37.40
2018-07-19T18:47:11.459Z,37.20
2018-07-19T18:49:40.585Z,37.60
2018-07-19T18:52:09.028Z,38.00
2018-07-19T18:54:38.062Z,38.00
2018-07-19T18:57:06.475Z,38.10
2018-07-19T18:59:36.403Z,38.10
2018-07-19T19:02:05.947Z,37.60
2018-07-19T19:04:34.940Z,38.30
2018-07-19T19:07:03.514Z,38.40
2018-07-19T19:09:32.379Z,38.40
2018-07-19T19:12:00.718Z,38.60
2018-07-19T19:14:29.331Z,38.80
2018-07-19T19:16:57.683Z,38.70
2018-07-19T19:19:26.136Z,39.10
2018-07-19T19:21:55.145Z,39.50
2018-07-19T19:24:23.538Z,40.10
2018-07-19T19:26:52.736Z,40.70
2018-07-19T19:29:21.870Z,40.70
2018-07-19T19:31:50.889Z,40.60
2018-07-19T19:34:19.339Z,40.10
2018-07-19T19:36:47.916Z,40.30
2018-07-19T19:39:16.297Z,40.30
2018-07-19T19:41:44.863Z,40.80
2018-07-19T19:44:13.982Z,41.30
2018-07-19T19:46:42.483Z,41.50
2018-07-19T19:49:10.879Z,41.50
2018-07-19T19:51:39.278Z,41.90
2018-07-19T19:54:08.238Z,41.60
2018-07-19T19:56:36.681Z,41.40
2018-07-19T19:59:05.440Z,42.10
2018-07-19T20:01:35.387Z,41.90
2018-07-19T20:04:04.632Z,41.90
2018-07-19T20:06:33.326Z,41.70
2018-07-19T20:09:02.694Z,42.10
2018-07-19T20:11:32.282Z,42.10
2018-07-19T20:14:00.829Z,42.20
2018-07-19T20:16:32.325Z,42.00
2018-07-19T20:19:01.528Z,42.10
2018-07-19T20:21:31.684Z,42.30
2018-07-19T20:24:00.115Z,42.80
2018-07-19T20:26:28.559Z,42.70
2018-07-19T20:28:56.981Z,42.80
2018-07-19T20:31:26.223Z,43.20
2018-07-19T20:33:55.401Z,43.20
2018-07-19T20:38:52.397Z,43.40
2018-07-19T20:41:21.619Z,43.20
2018-07-19T20:43:51.343Z,43.00
2018-07-19T20:46:19.731Z,43.40
2018-07-19T20:48:48.424Z,43.30
2018-07-19T20:51:16.958Z,44.10
2018-07-19T20:53:45.564Z,44.60
2018-07-19T20:56:13.940Z,44.80
2018-07-19T20:58:43.226Z,45.00
2018-07-19T21:01:12.512Z,45.50
2018-07-19T21:03:41.199Z,45.90
2018-07-19T21:06:11.081Z,46.20
2018-07-19T21:08:39.684Z,46.20
2018-07-19T21:11:08.691Z,46.40
2018-07-19T21:13:38.982Z,46.60
2018-07-19T21:16:07.608Z,46.60
2018-07-19T21:18:39.570Z,46.30
2018-07-19T21:21:08.046Z,46.10
2018-07-19T21:23:36.841Z,46.40
2018-07-19T21:26:06.612Z,46.30
2018-07-19T21:28:34.979Z,46.30
2018-07-19T21:31:04.117Z,46.30
2018-07-19T21:33:33.309Z,46.90
2018-07-19T21:36:01.890Z,46.10
2018-07-19T21:38:30.335Z,46.30
2018-07-19T21:40:59.407Z,46.50
2018-07-19T21:43:31.795Z,47.50
2018-07-19T21:46:01.294Z,47.30
2018-07-19T21:48:30.280Z,47.50
2018-07-19T21:51:03.656Z,47.60
2018-07-19T21:53:33.518Z,47.70
2018-07-19T21:56:02.026Z,47.80
2018-07-19T22:01:04.962Z,47.20
2018-07-19T22:03:35.683Z,47.40
2018-07-19T22:06:05.222Z,47.00
2018-07-19T22:08:35.968Z,47.40
2018-07-19T22:11:05.025Z,47.10
2018-07-19T22:13:35.148Z,46.50
2018-07-19T22:16:03.920Z,46.80
2018-07-19T22:18:32.754Z,47.10
2018-07-19T22:21:01.480Z,47.60
2018-07-19T22:23:30.116Z,48.20
2018-07-19T22:25:58.846Z,48.10
2018-07-19T22:28:27.744Z,48.20
2018-07-19T22:30:57.054Z,48.80
2018-07-19T22:33:26.187Z,48.80
2018-07-19T22:35:55.790Z,48.60
2018-07-19T22:38:24.106Z,48.80
2018-07-19T22:40:52.654Z,48.80
2018-07-19T22:43:21.495Z,48.90
2018-07-19T22:45:49.876Z,49.40
2018-07-19T22:48:18.807Z,49.20
2018-07-19T22:50:47.170Z,49.40
2018-07-19T22:53:15.632Z,49.30
2018-07-19T22:55:43.990Z,49.10
2018-07-19T22:58:12.392Z,48.70
2018-07-19T23:00:41.316Z,48.90
2018-07-19T23:05:38.566Z,49.60
2018-07-19T23:08:07.149Z,50.30
2018-07-19T23:10:37.059Z,50.00
2018-07-19T23:13:05.623Z,50.30
2018-07-19T23:15:35.513Z,50.20
2018-07-19T23:18:03.908Z,50.50
2018-07-19T23:20:33.466Z,50.60
2018-07-19T23:23:01.849Z,50.50
2018-07-19T23:25:32.185Z,50.90
2018-07-19T23:28:00.595Z,51.00
2018-07-19T23:30:32.895Z,50.80
2018-07-19T23:33:02.191Z,51.10
2018-07-19T23:35:34.881Z,51.20
2018-07-19T23:38:06.396Z,51.50
2018-07-19T23:40:38.257Z,51.50
2018-07-19T23:43:12.986Z,51.70
2018-07-19T23:45:47.198Z,52.10
2018-07-19T23:48:16.293Z,52.10
2018-07-19T23:50:45.521Z,52.40
2018-07-19T23:53:13.869Z,52.50
2018-07-19T23:55:42.691Z,52.20
2018-07-19T23:58:11.063Z,52.10
